sensor_id;sensor_type;location;lat;lon;timestamp;pressure;altitude;pressure_sealevel;temperature;humidity
27623;BME280;15041;45.334;5.622;2024-03-02T00:00:51;98343.47;;;8.99;75.73
27623;BME280;15041;45.334;5.622;2024-03-02T00:03:19;98340.78;;;8.84;76.38
27623;BME280;15041;45.334;5.622;2024-03-02T00:05:50;98333.78;;;8.88;76.11
27623;BME280;15041;45.334;5.622;2024-03-02T00:08:22;98336.72;;;8.91;75.41
27623;BME280;15041;45.334;5.622;2024-03-02T00:10:51;98327.34;;;8.94;76.05
27623;BME280;15041;45.334;5.622;2024-03-02T00:13:20;98328.97;;;8.70;76.91
27623;BME280;15041;45.334;5.622;2024-03-02T00:15:52;98341.34;;;8.66;79.08
27623;BME280;15041;45.334;5.622;2024-03-02T00:18:21;98352.09;;;8.46;79.43
27623;BME280;15041;45.334;5.622;2024-03-02T00:20:54;98352.91;;;8.71;78.37
27623;BME280;15041;45.334;5.622;2024-03-02T00:23:23;98358.81;;;8.78;77.92
27623;BME280;15041;45.334;5.622;2024-03-02T00:25:53;98362.31;;;8.64;78.10
27623;BME280;15041;45.334;5.622;2024-03-02T00:28:22;98368.50;;;8.79;77.35
27623;BME280;15041;45.334;5.622;2024-03-02T00:30:57;98373.63;;;8.66;78.75
27623;BME280;15041;45.334;5.622;2024-03-02T00:33:30;98375.94;;;8.17;82.17
27623;BME280;15041;45.334;5.622;2024-03-02T00:36:00;98363.94;;;8.35;81.31
27623;BME280;15041;45.334;5.622;2024-03-02T00:38:29;98375.50;;;8.55;80.00
27623;BME280;15041;45.334;5.622;2024-03-02T00:40:58;98363.94;;;8.45;79.91
27623;BME280;15041;45.334;5.622;2024-03-02T00:43:45;98378.44;;;8.49;80.39
27623;BME280;15041;45.334;5.622;2024-03-02T00:46:17;98373.06;;;8.44;80.02
27623;BME280;15041;45.334;5.622;2024-03-02T00:48:51;98374.13;;;8.43;81.12
27623;BME280;15041;45.334;5.622;2024-03-02T00:51:21;98361.25;;;8.45;80.23
27623;BME280;15041;45.334;5.622;2024-03-02T00:53:49;98349.97;;;8.48;79.84
27623;BME280;15041;45.334;5.622;2024-03-02T00:56:17;98347.25;;;8.38;80.96
27623;BME280;15041;45.334;5.622;2024-03-02T00:58:44;98351.56;;;8.44;80.88
27623;BME280;15041;45.334;5.622;2024-03-02T01:01:12;98342.41;;;8.45;80.85
27623;BME280;15041;45.334;5.622;2024-03-02T01:03:39;98338.13;;;8.39;81.08
27623;BME280;15041;45.334;5.622;2024-03-02T01:06:07;98330.06;;;8.49;80.74
27623;BME280;15041;45.334;5.622;2024-03-02T01:08:35;98335.16;;;8.45;80.11
27623;BME280;15041;45.334;5.622;2024-03-02T01:11:03;98335.44;;;8.44;79.58
27623;BME280;15041;45.334;5.622;2024-03-02T01:13:31;98313.91;;;8.49;80.36
27623;BME280;15041;45.334;5.622;2024-03-02T01:15:58;98310.16;;;8.50;79.33
27623;BME280;15041;45.334;5.622;2024-03-02T01:18:44;98314.44;;;8.51;78.56
27623;BME280;15041;45.334;5.622;2024-03-02T01:21:12;98329.53;;;8.57;78.34
27623;BME280;15041;45.334;5.622;2024-03-02T01:23:40;98331.13;;;8.48;78.49
27623;BME280;15041;45.334;5.622;2024-03-02T01:26:07;98340.25;;;8.47;79.36
27623;BME280;15041;45.334;5.622;2024-03-02T01:28:34;98348.88;;;8.49;79.39
27623;BME280;15041;45.334;5.622;2024-03-02T01:31:02;98349.66;;;8.39;78.44
27623;BME280;15041;45.334;5.622;2024-03-02T01:33:29;98348.88;;;8.49;78.82
27623;BME280;15041;45.334;5.622;2024-03-02T01:35:56;98340.25;;;8.47;80.21
27623;BME280;15041;45.334;5.622;2024-03-02T01:38:23;98347.53;;;8.46;79.37
27623;BME280;15041;45.334;5.622;2024-03-02T01:40:51;98347.28;;;8.48;79.32
27623;BME280;15041;45.334;5.622;2024-03-02T01:43:18;98342.69;;;8.38;80.27
27623;BME280;15041;45.334;5.622;2024-03-02T01:45:45;98327.38;;;8.39;80.42
27623;BME280;15041;45.334;5.622;2024-03-02T01:48:13;98325.22;;;8.31;80.75
27623;BME280;15041;45.334;5.622;2024-03-02T01:50:40;98326.28;;;8.35;80.37
27623;BME280;15041;45.334;5.622;2024-03-02T01:53:08;98319.31;;;8.44;80.66
27623;BME280;15041;45.334;5.622;2024-03-02T01:55:35;98318.75;;;8.57;79.88
27623;BME280;15041;45.334;5.622;2024-03-02T01:58:04;98309.59;;;8.68;78.97
27623;BME280;15041;45.334;5.622;2024-03-02T02:00:31;98302.34;;;8.63;79.37
27623;BME280;15041;45.334;5.622;2024-03-02T02:03:00;98308.00;;;8.57;80.18
27623;BME280;15041;45.334;5.622;2024-03-02T02:05:27;98315.25;;;8.51;80.60
27623;BME280;15041;45.334;5.622;2024-03-02T02:07:55;98322.00;;;8.49;80.12
27623;BME280;15041;45.334;5.622;2024-03-02T02:10:24;98316.06;;;8.62;78.75
27623;BME280;15041;45.334;5.622;2024-03-02T02:12:51;98319.28;;;8.64;77.20
27623;BME280;15041;45.334;5.622;2024-03-02T02:15:27;98333.03;;;8.62;80.29
27623;BME280;15041;45.334;5.622;2024-03-02T02:17:54;98321.44;;;8.42;82.57
27623;BME280;15041;45.334;5.622;2024-03-02T02:20:21;98322.47;;;8.16;81.90
27623;BME280;15041;45.334;5.622;2024-03-02T02:22:57;98314.44;;;8.51;80.62
27623;BME280;15041;45.334;5.622;2024-03-02T02:25:25;98304.25;;;8.53;79.23
27623;BME280;15041;45.334;5.622;2024-03-02T02:27:52;98303.13;;;8.64;79.32
27623;BME280;15041;45.334;5.622;2024-03-02T02:30:20;98286.47;;;8.67;79.49
27623;BME280;15041;45.334;5.622;2024-03-02T02:32:48;98281.63;;;8.74;78.85
27623;BME280;15041;45.334;5.622;2024-03-02T02:35:15;98281.09;;;8.77;79.11
27623;BME280;15041;45.334;5.622;2024-03-02T02:37:43;98287.53;;;8.76;78.73
27623;BME280;15041;45.334;5.622;2024-03-02T02:40:12;98281.09;;;8.72;79.08
27623;BME280;15041;45.334;5.622;2024-03-02T02:42:39;98278.94;;;8.79;79.01
27623;BME280;15041;45.334;5.622;2024-03-02T02:45:07;98278.94;;;8.79;78.70
27623;BME280;15041;45.334;5.622;2024-03-02T02:47:34;98277.03;;;8.84;77.85
27623;BME280;15041;45.334;5.622;2024-03-02T02:50:02;98281.06;;;8.87;77.31
27623;BME280;15041;45.334;5.622;2024-03-02T02:52:33;98279.19;;;8.92;77.14
27623;BME280;15041;45.334;5.622;2024-03-02T02:55:06;98279.44;;;8.91;77.38
27623;BME280;15041;45.334;5.622;2024-03-02T02:57:35;98268.66;;;8.96;76.90
27623;BME280;15041;45.334;5.622;2024-03-02T03:00:06;98270.03;;;8.88;77.29
27623;BME280;15041;45.334;5.622;2024-03-02T03:02:37;98263.31;;;8.81;78.55
27623;BME280;15041;45.334;5.622;2024-03-02T03:05:06;98252.28;;;8.82;78.52
27623;BME280;15041;45.334;5.622;2024-03-02T03:07:33;98239.63;;;8.88;79.82
27623;BME280;15041;45.334;5.622;2024-03-02T03:10:02;98232.09;;;8.95;77.83
27623;BME280;15041;45.334;5.622;2024-03-02T03:12:30;98238.00;;;8.92;78.56
27623;BME280;15041;45.334;5.622;2024-03-02T03:14:59;98226.41;;;9.01;78.63
27623;BME280;15041;45.334;5.622;2024-03-02T03:17:27;98237.44;;;9.00;80.10
27623;BME280;15041;45.334;5.622;2024-03-02T03:19:54;98229.88;;;9.02;79.51
27623;BME280;15041;45.334;5.622;2024-03-02T03:22:22;98221.84;;;8.97;79.89
27623;BME280;15041;45.334;5.622;2024-03-02T03:24:49;98218.09;;;8.93;78.55
27623;BME280;15041;45.334;5.622;2024-03-02T03:27:16;98224.00;;;8.95;78.94
27623;BME280;15041;45.334;5.622;2024-03-02T03:29:43;98225.13;;;8.84;77.37
27623;BME280;15041;45.334;5.622;2024-03-02T03:32:11;98224.50;;;9.02;76.35
27623;BME280;15041;45.334;5.622;2024-03-02T03:34:38;98221.84;;;8.97;76.35
27623;BME280;15041;45.334;5.622;2024-03-02T03:37:05;98225.84;;;9.09;75.23
27623;BME280;15041;45.334;5.622;2024-03-02T03:39:34;98224.56;;;8.92;74.97
27623;BME280;15041;45.334;5.622;2024-03-02T03:42:01;98223.16;;;8.99;75.43
27623;BME280;15041;45.334;5.622;2024-03-02T03:44:28;98211.06;;;8.97;77.04
27623;BME280;15041;45.334;5.622;2024-03-02T03:46:55;98218.03;;;9.08;75.25
27623;BME280;15041;45.334;5.622;2024-03-02T03:49:23;98214.81;;;9.06;75.74
27623;BME280;15041;45.334;5.622;2024-03-02T03:51:51;98211.59;;;9.04;76.88
27623;BME280;15041;45.334;5.622;2024-03-02T03:54:18;98222.13;;;9.00;79.47
27623;BME280;15041;45.334;5.622;2024-03-02T03:56:45;98224.50;;;9.02;78.83
27623;BME280;15041;45.334;5.622;2024-03-02T03:59:12;98220.22;;;8.96;79.74
27623;BME280;15041;45.334;5.622;2024-03-02T04:01:39;98225.75;;;8.36;80.87
27623;BME280;15041;45.334;5.622;2024-03-02T04:04:06;98234.84;;;8.55;81.50
27623;BME280;15041;45.334;5.622;2024-03-02T04:06:35;98239.66;;;8.78;80.06
27623;BME280;15041;45.334;5.622;2024-03-02T04:09:02;98229.97;;;8.72;81.86
27623;BME280;15041;45.334;5.622;2024-03-02T04:11:30;98214.38;;;8.79;79.45
27623;BME280;15041;45.334;5.622;2024-03-02T04:13:57;98194.22;;;8.76;79.30
27623;BME280;15041;45.334;5.622;2024-03-02T04:16:24;98193.34;;;8.91;75.11
27623;BME280;15041;45.334;5.622;2024-03-02T04:18:51;98179.56;;;9.02;73.04
27623;BME280;15041;45.334;5.622;2024-03-02T04:21:18;98191.06;;;9.18;72.11
27623;BME280;15041;45.334;5.622;2024-03-02T04:23:47;98183.47;;;9.30;70.09
27623;BME280;15041;45.334;5.622;2024-03-02T04:26:14;98185.06;;;9.31;69.32
27623;BME280;15041;45.334;5.622;2024-03-02T04:28:45;98194.19;;;9.40;68.13
27623;BME280;15041;45.334;5.622;2024-03-02T04:31:12;98184.38;;;9.10;69.57
27623;BME280;15041;45.334;5.622;2024-03-02T04:33:39;98180.31;;;9.18;69.09
27623;BME280;15041;45.334;5.622;2024-03-02T04:36:06;98184.63;;;9.14;70.29
27623;BME280;15041;45.334;5.622;2024-03-02T04:38:35;98192.69;;;9.19;73.53
27623;BME280;15041;45.334;5.622;2024-03-02T04:41:04;98194.34;;;9.10;74.85
27623;BME280;15041;45.334;5.622;2024-03-02T04:43:32;98197.56;;;9.12;71.42
27623;BME280;15041;45.334;5.622;2024-03-02T04:46:00;98182.41;;;9.26;70.75
27623;BME280;15041;45.334;5.622;2024-03-02T04:48:27;98169.50;;;9.28;71.34
27623;BME280;15041;45.334;5.622;2024-03-02T04:50:54;98177.84;;;9.26;72.99
27623;BME280;15041;45.334;5.622;2024-03-02T04:53:21;98172.78;;;9.20;74.35
27623;BME280;15041;45.334;5.622;2024-03-02T04:55:49;98177.59;;;9.23;74.75
27623;BME280;15041;45.334;5.622;2024-03-02T04:58:46;98177.63;;;9.18;73.84
27623;BME280;15041;45.334;5.622;2024-03-02T05:01:13;98184.16;;;9.07;72.08
27623;BME280;15041;45.334;5.622;2024-03-02T05:03:42;98162.09;;;9.00;73.26
27623;BME280;15041;45.334;5.622;2024-03-02T05:06:09;98165.78;;;9.14;73.10
27623;BME280;15041;45.334;5.622;2024-03-02T05:08:36;98174.88;;;9.23;71.92
27623;BME280;15041;45.334;5.622;2024-03-02T05:11:03;98172.25;;;9.13;72.04
27623;BME280;15041;45.334;5.622;2024-03-02T05:13:45;98184.63;;;9.14;70.53
27623;BME280;15041;45.334;5.622;2024-03-02T05:16:12;98180.88;;;9.15;70.92
27623;BME280;15041;45.334;5.622;2024-03-02T05:18:40;98181.97;;;9.09;71.51
27623;BME280;15041;45.334;5.622;2024-03-02T05:21:06;98183.47;;;9.30;71.83
27623;BME280;15041;45.334;5.622;2024-03-02T05:23:34;98189.47;;;9.17;72.01
27623;BME280;15041;45.334;5.622;2024-03-02T05:26:00;98179.44;;;8.74;74.71
27623;BME280;15041;45.334;5.622;2024-03-02T05:28:28;98181.56;;;8.72;75.57
27623;BME280;15041;45.334;5.622;2024-03-02T05:30:56;98184.16;;;8.97;75.03
27623;BME280;15041;45.334;5.622;2024-03-02T05:33:23;98179.78;;;9.16;74.03
27623;BME280;15041;45.334;5.622;2024-03-02T05:35:50;98162.09;;;9.00;74.45
27623;BME280;15041;45.334;5.622;2024-03-02T05:38:17;98160.97;;;9.06;73.29
27623;BME280;15041;45.334;5.622;2024-03-02T05:40:44;98149.97;;;9.02;73.53
27623;BME280;15041;45.334;5.622;2024-03-02T05:43:11;98144.91;;;8.96;73.87
27623;BME280;15041;45.334;5.622;2024-03-02T05:45:39;98147.50;;;9.16;72.60
27623;BME280;15041;45.334;5.622;2024-03-02T05:48:08;98143.84;;;8.92;73.55
27623;BME280;15041;45.334;5.622;2024-03-02T05:50:35;98143.59;;;8.88;73.85
27623;BME280;15041;45.334;5.622;2024-03-02T05:53:03;98144.91;;;8.96;74.29
27623;BME280;15041;45.334;5.622;2024-03-02T05:55:30;98137.19;;;8.79;73.96
27623;BME280;15041;45.334;5.622;2024-03-02T05:57:57;98134.13;;;8.96;73.66
27623;BME280;15041;45.334;5.622;2024-03-02T06:00:41;98121.19;;;9.03;73.84
27623;BME280;15041;45.334;5.622;2024-03-02T06:03:10;98127.75;;;8.82;75.06
27623;BME280;15041;45.334;5.622;2024-03-02T06:05:37;98123.94;;;8.88;75.12
27623;BME280;15041;45.334;5.622;2024-03-02T06:08:04;98137.06;;;8.99;73.89
27623;BME280;15041;45.334;5.622;2024-03-02T06:10:31;98134.19;;;8.86;73.54
27623;BME280;15041;45.334;5.622;2024-03-02T06:12:58;98115.38;;;8.81;73.86
27623;BME280;15041;45.334;5.622;2024-03-02T06:15:26;98116.88;;;9.02;73.14
27623;BME280;15041;45.334;5.622;2024-03-02T06:17:53;98124.97;;;8.97;74.64
27623;BME280;15041;45.334;5.622;2024-03-02T06:20:21;98105.66;;;8.90;73.64
27623;BME280;15041;45.334;5.622;2024-03-02T06:22:48;98095.41;;;8.92;72.62
27623;BME280;15041;45.334;5.622;2024-03-02T06:25:15;98102.34;;;9.03;75.43
27623;BME280;15041;45.334;5.622;2024-03-02T06:27:42;98102.97;;;8.90;75.21
27623;BME280;15041;45.334;5.622;2024-03-02T06:30:10;98123.72;;;8.79;75.71
27623;BME280;15041;45.334;5.622;2024-03-02T06:32:37;98141.25;;;8.67;76.25
27623;BME280;15041;45.334;5.622;2024-03-02T06:35:05;98162.31;;;8.30;79.95
27623;BME280;15041;45.334;5.622;2024-03-02T06:37:38;98184.34;;;8.17;82.89
27623;BME280;15041;45.334;5.622;2024-03-02T06:40:06;98181.16;;;8.35;82.24
27623;BME280;15041;45.334;5.622;2024-03-02T06:42:34;98172.78;;;8.36;81.39
27623;BME280;15041;45.334;5.622;2024-03-02T06:45:01;98171.91;;;8.66;78.72
27623;BME280;15041;45.334;5.622;2024-03-02T06:47:29;98163.31;;;8.64;77.72
27623;BME280;15041;45.334;5.622;2024-03-02T06:49:56;98168.06;;;8.87;75.71
27623;BME280;15041;45.334;5.622;2024-03-02T06:52:24;98157.03;;;8.93;74.58
27623;BME280;15041;45.334;5.622;2024-03-02T06:54:52;98154.69;;;8.77;76.87
27623;BME280;15041;45.334;5.622;2024-03-02T06:57:19;98147.59;;;8.96;76.34
27623;BME280;15041;45.334;5.622;2024-03-02T06:59:46;98145.06;;;8.51;77.51
27623;BME280;15041;45.334;5.622;2024-03-02T07:02:15;98146.34;;;8.73;77.23
27623;BME280;15041;45.334;5.622;2024-03-02T07:04:42;98136.38;;;8.79;76.56
27623;BME280;15041;45.334;5.622;2024-03-02T07:07:10;98137.47;;;8.68;78.16
27623;BME280;15041;45.334;5.622;2024-03-02T07:09:38;98126.19;;;8.71;77.58
27623;BME280;15041;45.334;5.622;2024-03-02T07:12:08;98110.03;;;8.71;78.33
27623;BME280;15041;45.334;5.622;2024-03-02T07:14:35;98100.78;;;8.92;76.81
27623;BME280;15041;45.334;5.622;2024-03-02T07:17:19;98084.81;;;8.62;78.92
27623;BME280;15041;45.334;5.622;2024-03-02T07:19:46;98070.25;;;8.73;79.07
27623;BME280;15041;45.334;5.622;2024-03-02T07:22:13;98063.06;;;9.02;76.21
27623;BME280;15041;45.334;5.622;2024-03-02T07:24:41;98071.97;;;8.97;77.33
27623;BME280;15041;45.334;5.622;2024-03-02T07:27:10;98064.19;;;8.96;77.23
27623;BME280;15041;45.334;5.622;2024-03-02T07:29:38;98072.22;;;9.01;78.26
27623;BME280;15041;45.334;5.622;2024-03-02T07:32:06;98070.63;;;9.38;77.21
27623;BME280;15041;45.334;5.622;2024-03-02T07:34:34;98072.72;;;9.08;78.40
27623;BME280;15041;45.334;5.622;2024-03-02T07:37:01;98066.22;;;9.14;77.07
27623;BME280;15041;45.334;5.622;2024-03-02T07:39:27;98063.91;;;9.36;76.74
27623;BME280;15041;45.334;5.622;2024-03-02T07:41:55;98061.19;;;9.36;75.98
27623;BME280;15041;45.334;5.622;2024-03-02T07:44:23;98064.38;;;9.43;75.12
27623;BME280;15041;45.334;5.622;2024-03-02T07:46:50;98062.94;;;9.22;73.91
27623;BME280;15041;45.334;5.622;2024-03-02T07:49:17;98040.47;;;9.36;73.41
27623;BME280;15041;45.334;5.622;2024-03-02T07:51:45;98033.78;;;9.34;72.18
27623;BME280;15041;45.334;5.622;2024-03-02T07:54:12;98036.34;;;9.49;70.77
27623;BME280;15041;45.334;5.622;2024-03-02T07:56:39;98041.47;;;9.12;73.40
27623;BME280;15041;45.334;5.622;2024-03-02T07:59:06;98045.69;;;9.23;73.77
27623;BME280;15041;45.334;5.622;2024-03-02T08:01:34;98011.69;;;9.37;73.34
27623;BME280;15041;45.334;5.622;2024-03-02T08:04:02;98015.53;;;9.59;71.49
27623;BME280;15041;45.334;5.622;2024-03-02T08:06:30;98030.88;;;9.59;71.05
27623;BME280;15041;45.334;5.622;2024-03-02T08:08:58;98041.97;;;9.81;71.05
27623;BME280;15041;45.334;5.622;2024-03-02T08:11:26;98044.16;;;9.79;72.33
27623;BME280;15041;45.334;5.622;2024-03-02T08:13:54;98056.66;;;9.65;72.55
27623;BME280;15041;45.334;5.622;2024-03-02T08:16:22;98052.97;;;9.56;68.97
27623;BME280;15041;45.334;5.622;2024-03-02T08:18:52;98064.56;;;9.56;68.70
27623;BME280;15041;45.334;5.622;2024-03-02T08:21:20;98058.28;;;9.66;68.10
27623;BME280;15041;45.334;5.622;2024-03-02T08:23:47;98053.50;;;9.86;69.06
27623;BME280;15041;45.334;5.622;2024-03-02T08:26:14;98060.34;;;9.74;72.26
27623;BME280;15041;45.334;5.622;2024-03-02T08:28:41;98059.50;;;9.50;72.18
27623;BME280;15041;45.334;5.622;2024-03-02T08:31:10;98071.31;;;9.54;72.84
27623;BME280;15041;45.334;5.622;2024-03-02T08:33:37;98053.34;;;9.73;72.99
27623;BME280;15041;45.334;5.622;2024-03-02T08:36:06;98048.13;;;9.53;72.82
27623;BME280;15041;45.334;5.622;2024-03-02T08:38:35;98041.75;;;10.06;71.03
27623;BME280;15041;45.334;5.622;2024-03-02T08:41:02;98056.19;;;10.15;69.31
27623;BME280;15041;45.334;5.622;2024-03-02T08:43:30;98051.31;;;11.19;66.96
27623;BME280;15041;45.334;5.622;2024-03-02T08:45:57;98039.31;;;11.62;60.79
27623;BME280;15041;45.334;5.622;2024-03-02T08:48:24;98031.56;;;11.88;60.71
27623;BME280;15041;45.334;5.622;2024-03-02T08:50:51;98026.66;;;11.58;60.44
27623;BME280;15041;45.334;5.622;2024-03-02T08:53:20;98031.41;;;12.25;57.09
27623;BME280;15041;45.334;5.622;2024-03-02T08:55:47;98027.38;;;11.82;57.22
27623;BME280;15041;45.334;5.622;2024-03-02T08:58:14;98035.72;;;11.67;60.34
27623;BME280;15041;45.334;5.622;2024-03-02T09:00:42;98047.03;;;11.00;61.79
27623;BME280;15041;45.334;5.622;2024-03-02T09:03:09;98035.00;;;11.43;61.42
27623;BME280;15041;45.334;5.622;2024-03-02T09:05:36;98025.66;;;11.54;61.77
27623;BME280;15041;45.334;5.622;2024-03-02T09:08:04;98022.41;;;11.38;61.96
27623;BME280;15041;45.334;5.622;2024-03-02T09:10:32;98017.41;;;10.76;62.34
27623;BME280;15041;45.334;5.622;2024-03-02T09:13:00;98016.09;;;10.92;63.74
27623;BME280;15041;45.334;5.622;2024-03-02T09:15:28;98018.94;;;11.01;62.67
27623;BME280;15041;45.334;5.622;2024-03-02T09:17:55;98015.94;;;10.84;62.16
27623;BME280;15041;45.334;5.622;2024-03-02T09:20:22;98021.84;;;10.86;63.15
27623;BME280;15041;45.334;5.622;2024-03-02T09:22:49;98022.41;;;10.64;63.69
27623;BME280;15041;45.334;5.622;2024-03-02T09:25:16;98016.53;;;10.62;64.47
27623;BME280;15041;45.334;5.622;2024-03-02T09:27:45;98010.53;;;10.47;64.35
27623;BME280;15041;45.334;5.622;2024-03-02T09:30:12;98005.06;;;10.52;64.51
27623;BME280;15041;45.334;5.622;2024-03-02T09:32:40;98009.22;;;10.63;65.73
27623;BME280;15041;45.334;5.622;2024-03-02T09:35:08;98023.09;;;10.75;65.90
27623;BME280;15041;45.334;5.622;2024-03-02T09:37:35;98036.84;;;10.73;67.15
27623;BME280;15041;45.334;5.622;2024-03-02T09:40:03;98028.06;;;10.86;66.63
27623;BME280;15041;45.334;5.622;2024-03-02T09:42:30;98016.53;;;10.81;65.50
27623;BME280;15041;45.334;5.622;2024-03-02T09:44:59;98011.78;;;10.73;64.88
27623;BME280;15041;45.334;5.622;2024-03-02T09:47:26;98011.72;;;10.78;64.83
27623;BME280;15041;45.334;5.622;2024-03-02T09:49:54;98008.66;;;11.03;63.49
27623;BME280;15041;45.334;5.622;2024-03-02T09:52:22;97993.38;;;11.12;63.32
27623;BME280;15041;45.334;5.622;2024-03-02T09:54:49;97985.88;;;11.09;63.35
27623;BME280;15041;45.334;5.622;2024-03-02T09:57:16;97976.06;;;10.99;62.39
27623;BME280;15041;45.334;5.622;2024-03-02T09:59:43;97965.16;;;11.23;61.24
27623;BME280;15041;45.334;5.622;2024-03-02T10:02:12;97972.13;;;11.24;60.77
27623;BME280;15041;45.334;5.622;2024-03-02T10:04:39;97976.53;;;11.20;61.06
27623;BME280;15041;45.334;5.622;2024-03-02T10:07:10;97971.41;;;11.18;61.37
27623;BME280;15041;45.334;5.622;2024-03-02T10:09:38;97973.16;;;11.28;60.74
27623;BME280;15041;45.334;5.622;2024-03-02T10:12:06;97964.00;;;11.42;60.20
27623;BME280;15041;45.334;5.622;2024-03-02T10:14:33;97955.88;;;11.42;57.50
27623;BME280;15041;45.334;5.622;2024-03-02T10:17:04;97944.59;;;11.54;57.42
27623;BME280;15041;45.334;5.622;2024-03-02T10:19:33;97935.38;;;11.55;56.23
27623;BME280;15041;45.334;5.622;2024-03-02T10:22:03;97925.69;;;11.54;58.44
27623;BME280;15041;45.334;5.622;2024-03-02T10:24:38;97919.13;;;11.60;58.09
27623;BME280;15041;45.334;5.622;2024-03-02T10:27:10;97916.56;;;11.50;59.67
27623;BME280;15041;45.334;5.622;2024-03-02T10:29:41;97919.13;;;11.60;60.29
27623;BME280;15041;45.334;5.622;2024-03-02T10:32:10;97923.34;;;11.66;59.58
27623;BME280;15041;45.334;5.622;2024-03-02T10:34:39;97929.41;;;11.58;59.44
27623;BME280;15041;45.334;5.622;2024-03-02T10:37:07;97925.22;;;11.65;59.92
27623;BME280;15041;45.334;5.622;2024-03-02T10:39:34;97937.44;;;11.63;59.00
27623;BME280;15041;45.334;5.622;2024-03-02T10:42:03;97934.97;;;11.93;59.76
27623;BME280;15041;45.334;5.622;2024-03-02T10:44:30;97931.16;;;12.08;58.63
27623;BME280;15041;45.334;5.622;2024-03-02T10:47:00;97924.22;;;12.02;57.37
27623;BME280;15041;45.334;5.622;2024-03-02T10:49:29;97913.41;;;12.29;59.08
27623;BME280;15041;45.334;5.622;2024-03-02T10:51:58;97912.81;;;11.91;58.92
27623;BME280;15041;45.334;5.622;2024-03-02T10:54:26;97903.78;;;12.23;59.23
27623;BME280;15041;45.334;5.622;2024-03-02T10:56:58;97898.69;;;12.57;59.67
27623;BME280;15041;45.334;5.622;2024-03-02T10:59:33;97883.22;;;12.35;60.18
27623;BME280;15041;45.334;5.622;2024-03-02T11:02:02;97878.03;;;12.61;60.71
27623;BME280;15041;45.334;5.622;2024-03-02T11:04:30;97868.63;;;12.80;60.61
27623;BME280;15041;45.334;5.622;2024-03-02T11:07:02;97861.81;;;13.66;55.60
27623;BME280;15041;45.334;5.622;2024-03-02T11:09:33;97853.91;;;13.95;55.95
27623;BME280;15041;45.334;5.622;2024-03-02T11:12:03;97839.25;;;14.13;53.57
27623;BME280;15041;45.334;5.622;2024-03-02T11:14:33;97835.34;;;14.62;51.59
27623;BME280;15041;45.334;5.622;2024-03-02T11:17:03;97828.88;;;15.09;49.50
27623;BME280;15041;45.334;5.622;2024-03-02T11:19:31;97814.91;;;15.27;48.87
27623;BME280;15041;45.334;5.622;2024-03-02T11:22:02;97823.34;;;15.51;48.65
27623;BME280;15041;45.334;5.622;2024-03-02T11:24:31;97818.53;;;15.57;48.47
27623;BME280;15041;45.334;5.622;2024-03-02T11:27:00;97817.72;;;15.56;48.67
27623;BME280;15041;45.334;5.622;2024-03-02T11:29:48;97826.81;;;15.89;48.16
27623;BME280;15041;45.334;5.622;2024-03-02T11:32:20;97807.78;;;15.89;47.95
27623;BME280;15041;45.334;5.622;2024-03-02T11:34:49;97806.75;;;15.73;49.27
27623;BME280;15041;45.334;5.622;2024-03-02T11:37:18;97797.19;;;15.67;48.76
27623;BME280;15041;45.334;5.622;2024-03-02T11:39:46;97778.09;;;15.76;48.25
27623;BME280;15041;45.334;5.622;2024-03-02T11:42:14;97774.13;;;15.94;48.27
27623;BME280;15041;45.334;5.622;2024-03-02T11:44:43;97769.38;;;16.11;47.60
27623;BME280;15041;45.334;5.622;2024-03-02T11:47:13;97763.84;;;16.20;47.88
27623;BME280;15041;45.334;5.622;2024-03-02T11:49:44;97752.78;;;16.45;47.73
27623;BME280;15041;45.334;5.622;2024-03-02T11:52:12;97742.94;;;15.91;47.61
27623;BME280;15041;45.334;5.622;2024-03-02T11:54:43;97738.56;;;16.19;47.69
27623;BME280;15041;45.334;5.622;2024-03-02T11:57:15;97735.09;;;16.31;47.18
27623;BME280;15041;45.334;5.622;2024-03-02T11:59:42;97732.03;;;15.71;48.89
27623;BME280;15041;45.334;5.622;2024-03-02T12:02:15;97715.44;;;16.25;48.19
27623;BME280;15041;45.334;5.622;2024-03-02T12:04:43;97706.47;;;16.78;47.00
27623;BME280;15041;45.334;5.622;2024-03-02T12:07:11;97685.91;;;16.80;46.88
27623;BME280;15041;45.334;5.622;2024-03-02T12:09:38;97683.97;;;16.69;46.53
27623;BME280;15041;45.334;5.622;2024-03-02T12:12:08;97688.66;;;16.15;47.06
27623;BME280;15041;45.334;5.622;2024-03-02T12:14:36;97676.81;;;16.52;47.31
27623;BME280;15041;45.334;5.622;2024-03-02T12:17:04;97681.38;;;16.72;46.87
27623;BME280;15041;45.334;5.622;2024-03-02T12:19:33;97691.16;;;16.85;45.73
27623;BME280;15041;45.334;5.622;2024-03-02T12:22:00;97688.53;;;16.77;45.78
27623;BME280;15041;45.334;5.622;2024-03-02T12:24:30;97688.22;;;17.14;45.94
27623;BME280;15041;45.334;5.622;2024-03-02T12:26:57;97681.63;;;17.27;44.91
27623;BME280;15041;45.334;5.622;2024-03-02T12:29:26;97678.94;;;17.51;44.98
27623;BME280;15041;45.334;5.622;2024-03-02T12:31:55;97666.31;;;17.35;43.94
27623;BME280;15041;45.334;5.622;2024-03-02T12:34:22;97667.78;;;17.08;44.92
27623;BME280;15041;45.334;5.622;2024-03-02T12:36:50;97658.47;;;17.57;43.67
27623;BME280;15041;45.334;5.622;2024-03-02T12:39:19;97651.41;;;17.56;43.78
27623;BME280;15041;45.334;5.622;2024-03-02T12:41:47;97642.31;;;17.64;43.42
27623;BME280;15041;45.334;5.622;2024-03-02T12:44:16;97642.41;;;17.68;43.66
27623;BME280;15041;45.334;5.622;2024-03-02T12:46:45;97644.16;;;17.48;43.91
27623;BME280;15041;45.334;5.622;2024-03-02T12:49:13;97648.94;;;17.15;44.25
27623;BME280;15041;45.334;5.622;2024-03-02T12:51:42;97651.00;;;16.94;45.96
27623;BME280;15041;45.334;5.622;2024-03-02T12:54:10;97648.81;;;17.00;46.04
27623;BME280;15041;45.334;5.622;2024-03-02T12:56:37;97657.69;;;16.97;46.15
27623;BME280;15041;45.334;5.622;2024-03-02T12:59:05;97649.81;;;17.31;45.81
27623;BME280;15041;45.334;5.622;2024-03-02T13:01:32;97628.00;;;17.67;45.92
27623;BME280;15041;45.334;5.622;2024-03-02T13:04:00;97624.03;;;17.53;45.78
27623;BME280;15041;45.334;5.622;2024-03-02T13:06:27;97632.97;;;17.65;45.59
27623;BME280;15041;45.334;5.622;2024-03-02T13:08:55;97605.78;;;17.17;47.02
27623;BME280;15041;45.334;5.622;2024-03-02T13:11:22;97636.88;;;17.40;46.75
27623;BME280;15041;45.334;5.622;2024-03-02T13:13:50;97611.06;;;17.38;45.11